createdAt,value
2023-06-12T00:00:15.983Z,44.61
2023-06-12T00:02:49.569Z,44.97
2023-06-12T00:04:45.945Z,45.04
2023-06-12T00:06:39.442Z,45.05
2023-06-12T00:08:36.176Z,45.47
2023-06-12T00:10:29.227Z,45.45
2023-06-12T00:12:23.105Z,45.42
2023-06-12T00:14:16.262Z,45.56
2023-06-12T00:16:10.473Z,45.50
2023-06-12T00:18:04.217Z,45.55
2023-06-12T00:19:57.255Z,45.49
2023-06-12T00:21:50.400Z,45.41
2023-06-12T00:23:43.676Z,45.56
2023-06-12T00:25:36.909Z,45.63
2023-06-12T00:27:29.979Z,45.63
2023-06-12T00:29:23.420Z,45.63
2023-06-12T00:31:16.504Z,45.85
2023-06-12T00:33:09.622Z,45.83
2023-06-12T00:35:02.882Z,45.94
2023-06-12T00:36:56.338Z,45.93
2023-06-12T00:38:49.590Z,46.06
2023-06-12T00:40:42.950Z,46.20
2023-06-12T00:42:43.890Z,46.45
2023-06-12T00:44:37.347Z,46.59
2023-06-12T00:46:30.648Z,46.56
2023-06-12T00:48:23.757Z,46.62
2023-06-12T00:50:18.984Z,46.93
2023-06-12T00:52:13.338Z,46.99
2023-06-12T00:54:06.490Z,47.35
2023-06-12T00:55:59.548Z,47.54
2023-06-12T00:57:53.720Z,47.62
2023-06-12T00:59:46.770Z,47.54
2023-06-12T01:01:39.811Z,47.48
2023-06-12T01:03:33.494Z,47.70
2023-06-12T01:05:34.710Z,47.98
2023-06-12T01:07:34.844Z,48.05
2023-06-12T01:09:27.895Z,48.13
2023-06-12T01:11:21.865Z,48.52
2023-06-12T01:13:17.828Z,48.62
2023-06-12T01:15:11.763Z,48.95
2023-06-12T01:17:05.641Z,48.81
2023-06-12T01:18:58.902Z,49.13
2023-06-12T01:20:54.700Z,49.10
2023-06-12T01:23:05.060Z,49.20
2023-06-12T01:25:25.037Z,49.27
2023-06-12T01:27:37.043Z,49.54
2023-06-12T01:29:49.232Z,49.64
2023-06-12T01:31:58.041Z,49.63
2023-06-12T01:33:58.063Z,49.67
2023-06-12T01:35:52.955Z,49.77
2023-06-12T01:37:47.439Z,49.82
2023-06-12T01:39:59.252Z,49.83
2023-06-12T01:41:53.616Z,50.13
2023-06-12T01:43:46.765Z,50.28
2023-06-12T01:45:41.972Z,50.31
2023-06-12T01:47:35.138Z,50.53
2023-06-12T01:49:28.269Z,50.68
2023-06-12T01:51:21.229Z,50.85
2023-06-12T01:53:16.920Z,51.00
2023-06-12T01:55:11.236Z,51.08
2023-06-12T01:57:05.185Z,51.01
2023-06-12T01:59:00.291Z,51.26
2023-06-12T02:01:03.079Z,51.35
2023-06-12T02:02:57.777Z,51.45
2023-06-12T02:04:55.538Z,51.47
2023-06-12T02:06:50.405Z,51.68
2023-06-12T02:08:44.250Z,51.87
2023-06-12T02:10:39.596Z,51.68
2023-06-12T02:12:33.552Z,51.75
2023-06-12T02:14:27.113Z,52.16
2023-06-12T02:16:22.836Z,52.10
2023-06-12T02:18:17.678Z,52.52
2023-06-12T02:20:12.224Z,52.49
2023-06-12T02:22:06.689Z,52.59
2023-06-12T02:24:00.223Z,52.55
2023-06-12T02:25:54.123Z,52.81
2023-06-12T02:27:47.283Z,53.18
2023-06-12T02:29:40.635Z,53.11
2023-06-12T02:31:33.940Z,53.06
2023-06-12T02:33:28.880Z,53.34
2023-06-12T02:35:22.449Z,53.43
2023-06-12T02:37:16.065Z,53.60
2023-06-12T02:39:14.397Z,53.82
2023-06-12T02:41:11.944Z,53.77
2023-06-12T02:43:05.403Z,53.91
2023-06-12T02:44:58.550Z,54.15
2023-06-12T02:46:56.114Z,54.05
2023-06-12T02:49:07.389Z,54.29
2023-06-12T02:51:00.859Z,54.28
2023-06-12T02:52:54.001Z,54.52
2023-06-12T02:54:47.470Z,54.61
2023-06-12T02:56:43.386Z,54.92
2023-06-12T02:58:36.642Z,54.84
2023-06-12T03:00:30.141Z,54.97
2023-06-12T03:02:23.623Z,54.89
2023-06-12T03:04:21.694Z,55.30
2023-06-12T03:06:15.492Z,55.39
2023-06-12T03:08:10.014Z,55.46
2023-06-12T03:10:03.139Z,55.57
2023-06-12T03:11:56.284Z,55.60
2023-06-12T03:13:49.643Z,55.68
2023-06-12T03:15:42.963Z,55.95
2023-06-12T03:17:36.171Z,56.02
2023-06-12T03:19:29.613Z,56.31
2023-06-12T03:21:22.868Z,56.55
2023-06-12T03:23:16.840Z,56.32
2023-06-12T03:25:11.894Z,56.41
2023-06-12T03:27:05.293Z,56.44
2023-06-12T03:28:59.272Z,56.22
2023-06-12T03:30:52.766Z,56.46
2023-06-12T03:32:47.319Z,56.88
2023-06-12T03:34:40.876Z,56.48
2023-06-12T03:36:35.447Z,56.35
2023-06-12T03:38:29.024Z,56.28
2023-06-12T03:40:22.182Z,56.27
2023-06-12T03:42:16.581Z,56.45
2023-06-12T03:44:16.576Z,56.68
2023-06-12T03:46:10.033Z,56.55
2023-06-12T03:48:03.149Z,56.89
2023-06-12T03:49:56.853Z,56.58
2023-06-12T03:51:51.074Z,56.52
2023-06-12T03:53:44.488Z,56.58
2023-06-12T03:55:37.962Z,56.40
2023-06-12T03:57:31.214Z,56.20
2023-06-12T03:59:24.256Z,56.12
2023-06-12T04:01:17.613Z,56.16
2023-06-12T04:03:11.019Z,56.04
2023-06-12T04:05:04.639Z,55.86
2023-06-12T04:06:58.604Z,55.83
2023-06-12T04:08:52.995Z,55.69
2023-06-12T04:10:46.456Z,55.61
2023-06-12T04:13:15.981Z,55.67
2023-06-12T04:18:42.654Z,55.26
2023-06-12T04:20:40.209Z,55.07
2023-06-12T04:22:43.705Z,55.04
2023-06-12T04:27:12.794Z,55.25
2023-06-12T04:38:46.036Z,54.80
2023-06-12T04:40:55.347Z,55.06
2023-06-12T04:43:23.238Z,55.35
2023-06-12T04:46:01.804Z,55.63
2023-06-12T04:52:26.629Z,56.23
2023-06-12T04:55:24.020Z,56.49
2023-06-12T05:02:07.097Z,56.98
2023-06-12T05:05:48.456Z,56.71
2023-06-12T05:08:21.407Z,56.62
2023-06-12T05:11:05.711Z,56.61
2023-06-12T05:15:48.647Z,56.93
2023-06-12T05:17:42.355Z,56.54
2023-06-12T05:19:36.696Z,56.27
2023-06-12T05:21:29.849Z,56.08
2023-06-12T05:23:23.304Z,55.89
2023-06-12T05:25:17.306Z,55.67
2023-06-12T05:27:11.865Z,55.99
2023-06-12T05:29:05.221Z,55.52
2023-06-12T05:30:58.399Z,55.34
2023-06-12T05:32:51.627Z,55.24
2023-06-12T05:34:44.779Z,55.00
2023-06-12T05:36:38.445Z,55.23
2023-06-12T05:38:32.311Z,55.46
2023-06-12T05:40:27.821Z,55.82
2023-06-12T05:42:20.974Z,54.97
2023-06-12T05:44:14.229Z,54.83
2023-06-12T05:46:07.496Z,54.64
2023-06-12T05:48:02.086Z,54.88
2023-06-12T05:49:56.127Z,55.11
2023-06-12T05:51:49.835Z,54.60
2023-06-12T05:53:46.795Z,54.69
2023-06-12T05:55:41.037Z,54.47
2023-06-12T05:57:34.494Z,54.42
2023-06-12T05:59:28.464Z,54.51
2023-06-12T06:01:26.442Z,54.35
2023-06-12T06:03:26.680Z,54.36
2023-06-12T06:05:20.653Z,54.60
2023-06-12T06:07:18.592Z,54.04
2023-06-12T06:09:15.328Z,53.82
2023-06-12T06:11:11.127Z,54.09
2023-06-12T06:13:06.236Z,53.95
2023-06-12T06:15:00.232Z,54.28
2023-06-12T06:16:55.233Z,54.31
2023-06-12T06:18:54.200Z,54.02
2023-06-12T06:20:47.658Z,54.91
2023-06-12T06:22:43.065Z,54.64
2023-06-12T06:24:36.651Z,53.76
2023-06-12T06:26:31.043Z,53.31
2023-06-12T06:28:53.245Z,53.33
2023-06-12T06:30:57.384Z,52.95
2023-06-12T06:32:51.562Z,52.76
2023-06-12T06:34:44.889Z,54.58
2023-06-12T06:36:38.352Z,53.32
2023-06-12T06:38:31.518Z,52.81
2023-06-12T06:40:26.028Z,54.16
2023-06-12T06:42:19.368Z,54.04
2023-06-12T06:44:17.441Z,53.14
2023-06-12T06:46:13.656Z,51.71
2023-06-12T06:48:09.044Z,50.69
2023-06-12T06:50:03.431Z,51.22
2023-06-12T06:51:57.904Z,50.95
2023-06-12T06:53:51.469Z,49.93
2023-06-12T06:55:47.386Z,49.80
2023-06-12T06:57:44.237Z,48.70
2023-06-12T06:59:38.206Z,47.69
2023-06-12T07:01:34.806Z,47.85
2023-06-12T07:03:29.233Z,47.80
2023-06-12T07:05:23.240Z,47.10
2023-06-12T07:07:16.670Z,46.65
2023-06-12T07:09:10.034Z,46.93
2023-06-12T07:11:03.485Z,47.08
2023-06-12T07:12:59.921Z,46.75
2023-06-12T07:15:05.100Z,45.86
2023-06-12T07:16:58.635Z,44.87
2023-06-12T07:18:52.179Z,45.09
2023-06-12T07:20:45.655Z,44.86
2023-06-12T07:22:38.989Z,44.73
2023-06-12T07:24:32.968Z,44.73
2023-06-12T07:26:29.343Z,41.73
2023-06-12T07:28:25.469Z,41.98
2023-06-12T07:30:20.950Z,41.14
2023-06-12T07:32:20.650Z,41.70
2023-06-12T07:34:14.087Z,41.28
2023-06-12T07:36:08.371Z,41.32
2023-06-12T07:38:02.455Z,41.46
2023-06-12T07:40:08.159Z,39.89
2023-06-12T07:42:03.089Z,39.99
2023-06-12T07:43:57.512Z,38.70
2023-06-12T07:45:50.841Z,37.48
2023-06-12T07:47:44.364Z,37.61
2023-06-12T07:49:38.252Z,36.68
2023-06-12T07:51:32.941Z,36.61
2023-06-12T07:53:37.700Z,36.28
2023-06-12T07:55:34.689Z,36.40
2023-06-12T07:57:29.441Z,37.07
2023-06-12T07:59:25.109Z,35.48
2023-06-12T08:01:23.840Z,35.35
2023-06-12T08:03:29.616Z,35.65
2023-06-12T08:05:24.626Z,34.78
2023-06-12T08:07:19.112Z,35.35
2023-06-12T08:09:12.317Z,35.85
2023-06-12T08:11:05.760Z,36.35
2023-06-12T08:12:58.879Z,36.56
2023-06-12T08:14:53.191Z,36.86
2023-06-12T08:16:47.776Z,34.84
2023-06-12T08:18:42.049Z,33.58
2023-06-12T08:20:35.800Z,32.93
2023-06-12T08:22:30.889Z,32.79
2023-06-12T08:24:24.372Z,32.92
2023-06-12T08:26:17.408Z,33.60
2023-06-12T08:28:10.764Z,34.73
2023-06-12T08:30:04.636Z,35.47
2023-06-12T08:31:58.093Z,36.65
2023-06-12T08:33:51.244Z,36.68
2023-06-12T08:35:44.700Z,36.71
2023-06-12T08:37:38.272Z,36.10
2023-06-12T08:39:31.416Z,35.39
2023-06-12T08:41:26.412Z,34.56
2023-06-12T08:43:19.566Z,33.29
2023-06-12T08:45:21.564Z,32.20
2023-06-12T08:47:17.650Z,30.55
2023-06-12T08:49:11.005Z,31.06
2023-06-12T08:51:05.389Z,30.32
2023-06-12T08:52:59.561Z,30.41
2023-06-12T08:54:53.176Z,29.76
2023-06-12T08:56:47.819Z,29.91
2023-06-12T08:58:41.069Z,29.92
2023-06-12T09:00:36.087Z,29.50
2023-06-12T09:02:29.728Z,29.40
2023-06-12T09:04:56.345Z,28.11
2023-06-12T09:06:51.771Z,28.29
2023-06-12T09:08:44.721Z,28.09
2023-06-12T09:10:40.143Z,27.62
2023-06-12T09:12:33.219Z,26.94
2023-06-12T09:14:26.330Z,26.53
2023-06-12T09:16:23.188Z,26.67
2023-06-12T09:18:16.709Z,26.39
2023-06-12T09:20:22.364Z,26.29
2023-06-12T09:22:25.666Z,26.72
2023-06-12T09:24:19.268Z,26.62
2023-06-12T09:26:17.178Z,27.38
2023-06-12T09:28:11.886Z,26.96
2023-06-12T09:30:08.624Z,27.85
2023-06-12T09:32:05.597Z,27.29
2023-06-12T09:33:58.917Z,26.84
2023-06-12T09:35:52.794Z,26.45
2023-06-12T09:40:09.324Z,27.40
2023-06-12T09:42:03.716Z,27.50
2023-06-12T09:44:06.160Z,25.87
2023-06-12T09:46:02.195Z,24.87
2023-06-12T09:47:56.932Z,24.55
2023-06-12T09:50:02.314Z,24.79
2023-06-12T09:51:56.601Z,24.78
2023-06-12T09:53:52.720Z,24.99
2023-06-12T09:55:47.158Z,25.76
2023-06-12T09:57:41.632Z,25.33
2023-06-12T09:59:36.767Z,24.10
2023-06-12T10:01:33.785Z,23.77
2023-06-12T10:03:27.732Z,23.51
2023-06-12T10:05:25.343Z,23.82
2023-06-12T10:07:23.935Z,23.95
2023-06-12T10:09:18.220Z,24.48
2023-06-12T10:11:13.355Z,23.01
2023-06-12T10:13:07.294Z,23.34
2023-06-12T10:15:02.071Z,23.22
2023-06-12T10:16:59.222Z,23.62
2023-06-12T10:18:52.272Z,22.58
2023-06-12T10:20:45.939Z,22.80
2023-06-12T10:22:39.659Z,21.62
2023-06-12T10:24:34.088Z,21.30
2023-06-12T10:26:28.148Z,21.20
2023-06-12T10:28:23.563Z,21.72
2023-06-12T10:30:19.074Z,22.18
2023-06-12T10:32:16.079Z,20.86
2023-06-12T10:34:13.582Z,20.48
2023-06-12T10:36:13.389Z,21.24
2023-06-12T10:38:06.572Z,21.00
2023-06-12T10:40:09.021Z,20.98
2023-06-12T10:42:08.114Z,20.81
2023-06-12T10:44:03.505Z,20.77
2023-06-12T10:46:00.190Z,21.84
2023-06-12T10:48:05.964Z,21.69
2023-06-12T10:50:06.810Z,20.99
2023-06-12T10:52:00.904Z,21.19
2023-06-12T10:53:55.498Z,20.74
2023-06-12T10:55:50.904Z,22.62
2023-06-12T10:57:54.217Z,20.37
2023-06-12T10:59:47.372Z,20.30
2023-06-12T11:01:41.118Z,19.86
2023-06-12T11:03:35.961Z,20.90
2023-06-12T11:05:30.425Z,21.22
2023-06-12T11:07:24.897Z,21.15
2023-06-12T11:09:17.945Z,22.03
2023-06-12T11:11:11.775Z,20.70
2023-06-12T11:13:05.247Z,20.34
2023-06-12T11:15:00.700Z,21.40
2023-06-12T11:16:58.245Z,21.67
2023-06-12T11:19:04.677Z,20.46
2023-06-12T11:20:57.923Z,20.61
2023-06-12T11:22:59.171Z,20.49
2023-06-12T11:25:00.272Z,20.14
2023-06-12T11:26:54.885Z,21.60
2023-06-12T11:28:48.042Z,21.17
2023-06-12T11:30:53.415Z,21.17
2023-06-12T11:32:54.978Z,21.39
2023-06-12T11:34:48.088Z,20.85
2023-06-12T11:36:41.447Z,20.78
2023-06-12T11:40:30.520Z,21.53
2023-06-12T11:42:23.705Z,21.24
2023-06-12T11:44:17.950Z,21.65
2023-06-12T11:46:11.745Z,21.97
2023-06-12T11:50:04.110Z,20.60
2023-06-12T11:51:58.133Z,20.79
2023-06-12T11:53:51.490Z,21.10
2023-06-12T11:57:51.527Z,20.59
2023-06-12T11:59:46.822Z,20.98
2023-06-12T12:01:40.707Z,20.74
2023-06-12T12:03:36.462Z,20.49
2023-06-12T12:05:39.500Z,20.85
2023-06-12T12:07:32.651Z,20.77
2023-06-12T12:09:28.978Z,20.54
2023-06-12T12:11:23.431Z,20.43
2023-06-12T12:13:17.224Z,20.03
2023-06-12T12:15:11.736Z,20.53
2023-06-12T12:17:06.320Z,20.76
2023-06-12T12:18:59.449Z,20.73
2023-06-12T12:20:53.418Z,20.95
2023-06-12T12:22:47.814Z,21.27
2023-06-12T12:24:41.161Z,21.21
2023-06-12T12:26:34.761Z,21.63
2023-06-12T12:28:28.081Z,21.96
2023-06-12T12:30:22.767Z,21.99
2023-06-12T12:32:16.642Z,21.66
2023-06-12T12:34:10.364Z,21.69
2023-06-12T12:36:04.388Z,22.10
2023-06-12T12:37:57.739Z,21.28
2023-06-12T12:39:50.896Z,22.01
2023-06-12T12:41:44.063Z,22.33
2023-06-12T12:43:37.104Z,21.54
2023-06-12T12:45:30.264Z,21.66
2023-06-12T12:47:23.586Z,21.92
2023-06-12T12:49:16.857Z,21.74
2023-06-12T12:51:11.236Z,21.61
2023-06-12T12:53:04.702Z,21.95
2023-06-12T12:54:57.783Z,21.69
2023-06-12T12:56:51.022Z,21.30
2023-06-12T12:58:44.160Z,21.53
2023-06-12T13:00:39.637Z,21.56
2023-06-12T13:02:33.025Z,21.22
2023-06-12T13:04:26.586Z,21.57
2023-06-12T13:06:21.849Z,21.24
2023-06-12T13:08:17.097Z,20.75
2023-06-12T13:10:16.068Z,21.63
2023-06-12T13:12:13.771Z,21.50
2023-06-12T13:15:32.432Z,21.27
2023-06-12T13:17:25.490Z,21.21
2023-06-12T13:19:21.160Z,20.89
2023-06-12T13:21:16.770Z,21.11
2023-06-12T13:23:14.173Z,20.76
2023-06-12T13:25:10.757Z,20.78
2023-06-12T13:27:08.410Z,20.53
2023-06-12T13:29:02.793Z,20.09
2023-06-12T13:30:55.879Z,19.97
2023-06-12T13:32:49.341Z,19.63
2023-06-12T13:34:42.877Z,19.77
2023-06-12T13:36:35.918Z,19.74
2023-06-12T13:38:29.774Z,19.78
2023-06-12T13:40:24.758Z,19.78
2023-06-12T13:42:18.349Z,19.72
2023-06-12T13:44:12.461Z,19.74
2023-06-12T13:47:59.789Z,19.59
2023-06-12T13:49:53.940Z,19.96
2023-06-12T13:51:46.998Z,19.70
2023-06-12T13:53:41.066Z,19.75
2023-06-12T13:55:36.977Z,19.66
2023-06-12T13:57:30.235Z,19.46
2023-06-12T13:59:23.283Z,19.32
2023-06-12T14:01:16.373Z,19.28
2023-06-12T14:03:09.832Z,19.66
2023-06-12T14:05:03.603Z,19.67
2023-06-12T14:06:59.817Z,20.13
2023-06-12T14:08:55.665Z,20.23
2023-06-12T14:10:50.021Z,19.98
2023-06-12T14:12:44.733Z,20.04
2023-06-12T14:14:38.682Z,20.29
2023-06-12T14:16:32.066Z,20.24
2023-06-12T14:18:25.176Z,20.19
2023-06-12T14:20:18.312Z,19.79
2023-06-12T14:22:11.503Z,19.88
2023-06-12T14:24:05.648Z,19.61
2023-06-12T14:25:58.900Z,19.46
2023-06-12T14:27:51.948Z,19.25
2023-06-12T14:29:44.996Z,19.75
2023-06-12T14:31:38.094Z,19.65
2023-06-12T14:33:31.530Z,19.54
2023-06-12T14:35:24.760Z,19.64
2023-06-12T14:37:21.200Z,19.68
2023-06-12T14:39:14.343Z,19.45
2023-06-12T14:41:07.708Z,19.13
2023-06-12T14:43:00.686Z,19.60
2023-06-12T14:44:53.727Z,19.49
2023-06-12T14:46:46.648Z,19.29
2023-06-12T14:48:39.701Z,19.51
2023-06-12T14:50:33.567Z,19.87
2023-06-12T14:52:32.490Z,19.98
2023-06-12T14:54:26.709Z,19.54
2023-06-12T14:56:20.507Z,19.46
2023-06-12T14:58:14.119Z,19.94
2023-06-12T15:00:09.197Z,20.38
2023-06-12T15:02:02.324Z,20.12
2023-06-12T15:03:55.639Z,20.17
2023-06-12T15:05:48.854Z,20.67
2023-06-12T15:07:42.086Z,20.31
2023-06-12T15:09:35.137Z,19.86
2023-06-12T15:11:28.167Z,19.90
2023-06-12T15:13:24.824Z,19.90
2023-06-12T15:15:17.775Z,20.34
2023-06-12T15:17:15.224Z,20.79
2023-06-12T15:19:08.278Z,20.60
2023-06-12T15:21:01.430Z,20.27
2023-06-12T15:22:54.477Z,20.37
2023-06-12T15:24:47.629Z,20.65
2023-06-12T15:26:40.677Z,21.16
2023-06-12T15:28:33.879Z,21.16
2023-06-12T15:30:29.237Z,20.50
2023-06-12T15:32:22.544Z,20.24
2023-06-12T15:34:16.071Z,20.23
2023-06-12T15:36:10.124Z,20.36
2023-06-12T15:38:42.086Z,19.95
2023-06-12T15:40:35.222Z,20.05
2023-06-12T15:42:28.314Z,20.04
2023-06-12T15:44:21.474Z,20.01
2023-06-12T15:46:14.656Z,20.41
2023-06-12T15:48:07.887Z,20.58
2023-06-12T15:50:00.937Z,19.93
2023-06-12T15:51:54.060Z,20.34
2023-06-12T15:53:47.312Z,20.15
2023-06-12T15:55:47.954Z,20.44
2023-06-12T15:57:41.674Z,20.82
2023-06-12T15:59:35.990Z,20.83
2023-06-12T16:01:29.202Z,20.41
2023-06-12T16:03:22.420Z,20.16
2023-06-12T16:05:15.915Z,20.11
2023-06-12T16:07:09.240Z,20.22
2023-06-12T16:09:02.710Z,20.12
2023-06-12T16:11:06.640Z,20.58
2023-06-12T16:13:34.824Z,21.02
2023-06-12T16:16:00.269Z,20.44
2023-06-12T16:17:53.459Z,20.81
2023-06-12T16:19:46.900Z,20.68
2023-06-12T16:21:40.237Z,21.57
2023-06-12T16:23:38.805Z,21.32
2023-06-12T16:25:32.996Z,21.17
2023-06-12T16:27:26.046Z,21.41
2023-06-12T16:29:20.138Z,21.31
2023-06-12T16:31:13.461Z,21.09
2023-06-12T16:33:07.375Z,21.11
2023-06-12T16:35:01.156Z,21.28
2023-06-12T16:36:55.730Z,21.45
2023-06-12T16:38:48.896Z,21.40
2023-06-12T16:40:42.003Z,21.50
2023-06-12T16:42:35.933Z,21.83
2023-06-12T16:44:30.181Z,22.08
2023-06-12T16:46:41.022Z,22.10
2023-06-12T16:48:34.389Z,21.68
2023-06-12T16:50:27.442Z,22.18
2023-06-12T16:52:22.541Z,21.82
2023-06-12T16:54:15.830Z,21.79
2023-06-12T16:56:09.064Z,21.83
2023-06-12T16:58:05.853Z,22.01
2023-06-12T16:59:59.444Z,21.76
2023-06-12T17:01:52.534Z,22.09
2023-06-12T17:03:46.167Z,21.92
2023-06-12T17:05:39.519Z,21.95
2023-06-12T17:07:32.782Z,22.44
2023-06-12T17:09:32.703Z,22.48
2023-06-12T17:11:26.045Z,22.62
2023-06-12T17:13:19.314Z,22.36
2023-06-12T17:15:13.021Z,22.65
2023-06-12T17:17:06.457Z,22.54
2023-06-12T17:18:59.480Z,22.82
2023-06-12T17:20:52.625Z,23.19
2023-06-12T17:22:45.843Z,23.07
2023-06-12T17:24:40.263Z,23.23
2023-06-12T17:26:33.432Z,23.48
2023-06-12T17:28:26.373Z,23.69
2023-06-12T17:30:19.349Z,23.52
2023-06-12T17:32:12.622Z,22.78
2023-06-12T17:34:06.029Z,22.60
2023-06-12T17:35:59.591Z,22.58
2023-06-12T17:37:52.768Z,22.08
2023-06-12T17:39:45.970Z,22.73
2023-06-12T17:41:40.279Z,22.68
2023-06-12T17:43:33.433Z,22.80
2023-06-12T17:45:26.493Z,23.31
2023-06-12T17:47:19.746Z,23.43
2023-06-12T17:49:12.822Z,23.73
2023-06-12T17:51:06.263Z,23.52
2023-06-12T17:52:59.413Z,23.96
2023-06-12T17:54:52.458Z,23.92
2023-06-12T17:56:47.460Z,23.68
2023-06-12T17:58:42.073Z,24.06
2023-06-12T18:00:35.205Z,24.49
2023-06-12T18:02:29.231Z,24.54
2023-06-12T18:04:22.533Z,24.82
2023-06-12T18:06:15.691Z,24.67
2023-06-12T18:08:08.832Z,24.49
2023-06-12T18:10:04.213Z,24.84
2023-06-12T18:11:57.384Z,24.52
2023-06-12T18:13:53.518Z,24.93
2023-06-12T18:15:47.287Z,25.20
2023-06-12T18:17:40.483Z,25.29
2023-06-12T18:19:33.910Z,25.52
2023-06-12T18:21:27.454Z,25.67
2023-06-12T18:23:21.012Z,25.71
2023-06-12T18:25:14.282Z,25.86
2023-06-12T18:27:08.548Z,25.96
2023-06-12T18:29:02.419Z,25.66
2023-06-12T18:30:55.877Z,25.74
2023-06-12T18:32:49.050Z,26.07
2023-06-12T18:34:47.527Z,26.30
2023-06-12T18:36:40.661Z,26.27
2023-06-12T18:38:34.020Z,26.52
2023-06-12T18:40:27.487Z,26.61
2023-06-12T18:42:21.147Z,26.34
2023-06-12T18:44:16.390Z,26.35
2023-06-12T18:46:09.526Z,26.99
2023-06-12T18:48:02.502Z,27.12
2023-06-12T18:49:55.699Z,27.01
2023-06-12T18:51:49.060Z,27.49
2023-06-12T18:53:43.026Z,27.43
2023-06-12T18:55:38.181Z,27.71
2023-06-12T18:57:31.488Z,27.64
2023-06-12T18:59:26.884Z,27.76
2023-06-12T19:01:20.198Z,27.95
2023-06-12T19:03:14.291Z,28.29
2023-06-12T19:05:10.101Z,28.81
2023-06-12T19:07:08.687Z,29.05
2023-06-12T19:09:01.823Z,29.73
2023-06-12T19:11:04.051Z,29.91
2023-06-12T19:13:11.325Z,30.11
2023-06-12T19:15:05.475Z,29.75
2023-06-12T19:16:59.438Z,30.31
2023-06-12T19:18:53.552Z,30.93
2023-06-12T19:20:46.595Z,31.32
2023-06-12T19:22:39.752Z,31.15
2023-06-12T19:24:33.163Z,31.47
2023-06-12T19:26:26.667Z,31.87
2023-06-12T19:28:19.818Z,32.40
2023-06-12T19:30:15.020Z,32.91
2023-06-12T19:32:08.670Z,32.85
2023-06-12T19:34:03.179Z,33.65
2023-06-12T19:35:56.428Z,34.28
2023-06-12T19:37:49.479Z,34.53
2023-06-12T19:39:43.351Z,34.32
2023-06-12T19:41:36.507Z,33.17
2023-06-12T19:43:30.684Z,33.34
2023-06-12T19:45:25.978Z,32.99
2023-06-12T19:47:19.242Z,32.76
2023-06-12T19:49:12.396Z,32.31
2023-06-12T19:51:06.272Z,32.45
2023-06-12T19:53:01.180Z,32.46
2023-06-12T19:54:54.419Z,32.59
2023-06-12T19:56:48.388Z,32.30
2023-06-12T19:58:41.332Z,32.44
2023-06-12T20:00:35.334Z,32.52
2023-06-12T20:02:29.004Z,32.40
2023-06-12T20:04:25.192Z,32.53
2023-06-12T20:06:18.405Z,32.56
2023-06-12T20:08:11.844Z,32.65
2023-06-12T20:10:05.708Z,32.70
2023-06-12T20:11:58.934Z,32.78
2023-06-12T20:13:55.051Z,32.71
2023-06-12T20:15:48.286Z,32.93
2023-06-12T20:17:41.554Z,32.90
2023-06-12T20:19:35.744Z,32.90
2023-06-12T20:21:28.796Z,32.82
2023-06-12T20:23:22.234Z,33.03
2023-06-12T20:25:15.928Z,33.07
2023-06-12T20:27:10.237Z,33.24
2023-06-12T20:29:03.347Z,33.29
2023-06-12T20:30:56.302Z,33.21
2023-06-12T20:32:49.543Z,33.29
2023-06-12T20:34:43.316Z,33.50
2023-06-12T20:36:38.650Z,33.49
2023-06-12T20:38:31.850Z,33.33
2023-06-12T20:40:26.615Z,33.27
2023-06-12T20:42:20.854Z,33.18
2023-06-12T20:44:14.304Z,33.25
2023-06-12T20:46:07.570Z,33.18
2023-06-12T20:48:01.184Z,33.19
2023-06-12T20:49:54.523Z,32.87
2023-06-12T20:51:47.536Z,32.89
2023-06-12T20:53:40.733Z,32.95
2023-06-12T20:55:33.749Z,33.25
2023-06-12T20:57:27.033Z,33.60
2023-06-12T20:59:20.245Z,33.72
2023-06-12T21:01:13.625Z,33.81
2023-06-12T21:03:07.039Z,34.05
2023-06-12T21:05:00.328Z,34.07
2023-06-12T21:06:54.398Z,34.11
2023-06-12T21:08:58.745Z,34.03
2023-06-12T21:10:52.379Z,34.04
2023-06-12T21:12:45.325Z,34.08
2023-06-12T21:14:40.536Z,34.01
2023-06-12T21:16:36.920Z,34.09
2023-06-12T21:18:30.036Z,34.14
2023-06-12T21:20:24.339Z,33.99
2023-06-12T21:22:44.075Z,34.05
2023-06-12T21:24:37.778Z,34.04
2023-06-12T21:26:31.704Z,34.22
2023-06-12T21:28:26.672Z,34.20
2023-06-12T21:30:20.670Z,34.31
2023-06-12T21:32:13.955Z,34.50
2023-06-12T21:34:08.211Z,34.63
2023-06-12T21:36:01.254Z,34.73
2023-06-12T21:37:54.513Z,34.90
2023-06-12T21:39:47.669Z,35.08
2023-06-12T21:41:42.493Z,35.21
2023-06-12T21:43:36.403Z,35.58
2023-06-12T21:45:31.526Z,35.73
2023-06-12T21:47:24.910Z,35.86
2023-06-12T21:49:17.942Z,35.94
2023-06-12T21:51:11.193Z,36.06
2023-06-12T21:53:04.620Z,36.13
2023-06-12T21:54:57.807Z,36.25
2023-06-12T21:56:51.878Z,36.37
2023-06-12T21:58:45.037Z,36.63
2023-06-12T22:00:38.077Z,36.83
2023-06-12T22:02:31.083Z,36.94
2023-06-12T22:04:24.463Z,37.08
2023-06-12T22:06:17.749Z,37.21
2023-06-12T22:08:10.998Z,37.37
2023-06-12T22:10:05.282Z,37.34
2023-06-12T22:11:58.326Z,37.15
2023-06-12T22:13:51.377Z,37.29
2023-06-12T22:15:44.531Z,37.19
2023-06-12T22:17:38.839Z,37.13
2023-06-12T22:19:32.150Z,37.13
2023-06-12T22:21:25.421Z,37.28
2023-06-12T22:23:18.684Z,37.26
2023-06-12T22:25:11.961Z,37.39
2023-06-12T22:27:06.725Z,37.38
2023-06-12T22:28:59.778Z,37.38
2023-06-12T22:31:02.562Z,37.27
2023-06-12T22:32:57.297Z,37.24
2023-06-12T22:34:51.828Z,37.33
2023-06-12T22:36:44.877Z,37.32
2023-06-12T22:38:37.832Z,37.20
2023-06-12T22:40:30.777Z,37.26
2023-06-12T22:42:25.811Z,37.33
2023-06-12T22:44:18.922Z,37.39
2023-06-12T22:46:12.236Z,37.43
2023-06-12T22:48:09.682Z,37.36
2023-06-12T22:50:04.153Z,37.40
2023-06-12T22:52:05.261Z,37.47
2023-06-12T22:53:58.305Z,37.48
2023-06-12T22:55:51.353Z,37.57
2023-06-12T22:57:44.307Z,37.86
2023-06-12T22:59:37.879Z,37.88
2023-06-12T23:01:32.041Z,38.08
2023-06-12T23:03:24.999Z,38.15
2023-06-12T23:05:18.477Z,38.17
2023-06-12T23:07:12.092Z,38.25
2023-06-12T23:09:05.479Z,38.35
2023-06-12T23:11:02.045Z,38.57
2023-06-12T23:12:57.251Z,38.52
2023-06-12T23:14:50.361Z,38.81
2023-06-12T23:16:44.739Z,39.03
2023-06-12T23:18:39.540Z,39.17
2023-06-12T23:20:33.042Z,39.61
2023-06-12T23:22:30.584Z,39.53
2023-06-12T23:24:27.362Z,40.01
2023-06-12T23:26:24.969Z,40.03
2023-06-12T23:28:18.319Z,39.95
2023-06-12T23:30:12.344Z,40.09
2023-06-12T23:32:06.249Z,40.47
2023-06-12T23:33:59.249Z,40.71
2023-06-12T23:35:53.081Z,40.57
2023-06-12T23:37:46.530Z,40.40
2023-06-12T23:39:39.887Z,40.43
2023-06-12T23:41:32.831Z,40.26
2023-06-12T23:43:26.093Z,40.35
2023-06-12T23:45:19.145Z,40.25
2023-06-12T23:47:12.121Z,40.52
2023-06-12T23:49:05.240Z,40.62
2023-06-12T23:50:58.198Z,40.80
2023-06-12T23:52:51.351Z,41.16
2023-06-12T23:54:44.595Z,41.56
2023-06-12T23:56:38.058Z,41.95
2023-06-12T23:58:31.629Z,42.39
